Time;durP1;ratioP1;P1;durP2;ratioP2;P2;SDS_P1;SDS_P2;PMS_P1;PMS_P2;Temp;Humidity;BMP_temperature;BMP_pressure;BME280_temperature;BME280_humidity;BME280_pressure;Samples;Min_cycle;Max_cycle;Signal;HPM_P1;HPM_P2
2022/04/09 00:02:05;;;;;;;;;0.67;0.67;;;;;15.96;53.67;100520.47;5071390;28;8756;-68
2022/04/09 00:04:30;;;;;;;;;0.00;0.00;;;;;15.99;53.38;100522.19;5071107;28;8768;-68
2022/04/09 00:06:55;;;;;;;;;0.67;0.00;;;;;15.92;53.72;100516.97;5070526;28;9502;-69
2022/04/09 00:09:21;;;;;;;;;0.00;0.00;;;;;15.94;53.24;100525.72;5071842;28;8798;-68
2022/04/09 00:11:46;;;;;;;;;0.00;0.00;;;;;15.94;53.33;100530.09;5071547;28;8757;-68
2022/04/09 00:14:12;;;;;;;;;0.33;0.00;;;;;15.98;53.06;100533.59;5070875;28;8816;-69
2022/04/09 00:16:38;;;;;;;;;1.00;0.00;;;;;15.98;53.09;100533.59;5071090;28;8799;-68
2022/04/09 00:19:04;;;;;;;;;0.00;0.00;;;;;15.92;52.95;100540.66;5070204;28;8811;-68
2022/04/09 00:21:34;;;;;;;;;1.00;1.00;;;;;15.90;53.24;100537.16;5071478;28;9187;-68
2022/04/09 00:24:02;;;;;;;;;1.00;0.00;;;;;15.89;53.10;100538.06;5070775;28;9515;-68
2022/04/09 00:26:28;;;;;;;;;0.00;0.00;;;;;15.91;52.88;100548.56;5070724;28;9403;-68
2022/04/09 00:28:53;;;;;;;;;0.00;0.00;;;;;15.91;52.99;100551.19;5070527;28;9890;-68
2022/04/09 00:31:18;;;;;;;;;0.33;0.00;;;;;15.92;52.79;100553.81;5071114;28;8768;-69
2022/04/09 00:33:44;;;;;;;;;0.00;0.00;;;;;15.94;52.58;100557.31;5070052;28;8774;-68
2022/04/09 00:36:09;;;;;;;;;0.00;0.00;;;;;15.91;52.69;100557.34;5071020;28;8799;-67
2022/04/09 00:38:34;;;;;;;;;0.00;0.00;;;;;15.90;52.56;100552.94;5071139;28;8925;-68
2022/04/09 00:40:59;;;;;;;;;1.67;0.67;;;;;15.91;52.53;100556.44;5070132;28;8780;-68
2022/04/09 00:43:25;;;;;;;;;0.00;0.00;;;;;15.89;52.53;100555.59;5070984;28;8849;-68
2022/04/09 00:45:50;;;;;;;;;1.00;1.00;;;;;15.89;52.49;100560.88;5070508;28;8760;-68
2022/04/09 00:48:17;;;;;;;;;0.00;0.00;;;;;15.93;52.47;100566.09;5070076;28;8768;-67
2022/04/09 00:50:43;;;;;;;;;0.00;0.00;;;;;15.88;52.46;100570.53;5070896;28;8832;-68
2022/04/09 00:53:10;;;;;;;;;0.00;0.00;;;;;15.94;52.20;100570.47;5071139;28;9106;-69
2022/04/09 00:58:21;;;;;;;;;0.00;0.00;;;;;15.76;52.31;100588.09;5071104;28;9146;-69
2022/04/09 01:00:46;;;;;;;;;0.00;0.00;;;;;15.85;52.63;100588.09;5070202;28;9175;-69
2022/04/09 01:03:19;;;;;;;;;0.33;0.00;;;;;15.84;52.21;100589.84;5070144;28;9199;-69
2022/04/09 01:05:45;;;;;;;;;0.00;0.00;;;;;15.86;52.42;100592.44;5070097;28;8779;-69
2022/04/09 01:08:12;;;;;;;;;0.00;0.00;;;;;15.87;52.31;100596.84;5069712;28;9300;-69
2022/04/09 01:10:37;;;;;;;;;0.67;0.00;;;;;15.86;52.42;100595.06;5070278;28;9159;-69
2022/04/09 01:13:03;;;;;;;;;0.00;0.00;;;;;15.91;52.30;100607.34;5069963;28;9210;-68
2022/04/09 01:15:28;;;;;;;;;1.00;0.00;;;;;15.91;51.96;100601.22;5069319;28;9372;-68
2022/04/09 01:17:54;;;;;;;;;1.00;0.00;;;;;15.84;52.02;100610.91;5069584;28;8925;-68
2022/04/09 01:20:21;;;;;;;;;0.00;0.00;;;;;15.86;51.85;100630.19;5070016;28;8799;-68
2022/04/09 01:22:47;;;;;;;;;2.00;0.33;;;;;15.86;52.09;100640.72;5069059;28;8796;-69
2022/04/09 01:25:13;;;;;;;;;0.00;0.00;;;;;15.85;51.79;100675.84;5070087;28;9103;-69
2022/04/09 01:27:38;;;;;;;;;0.00;0.00;;;;;15.90;51.95;100642.44;5070158;28;9171;-69
2022/04/09 01:30:05;;;;;;;;;1.00;1.00;;;;;15.87;51.84;100639.84;5068786;28;8764;-71
2022/04/09 01:32:30;;;;;;;;;0.33;0.00;;;;;15.80;51.88;100653.91;5070092;28;8771;-69
2022/04/09 01:34:55;;;;;;;;;0.33;0.33;;;;;15.88;51.80;100653.88;5069816;28;9089;-69
2022/04/09 01:37:21;;;;;;;;;0.00;0.00;;;;;15.86;51.55;100653.00;5069298;28;8815;-69
2022/04/09 01:39:46;;;;;;;;;2.00;0.00;;;;;15.86;51.52;100658.25;5069921;28;9000;-69
2022/04/09 01:42:11;;;;;;;;;2.00;0.00;;;;;15.84;51.68;100658.28;5070113;28;8775;-68
2022/04/09 01:44:37;;;;;;;;;0.00;0.00;;;;;15.84;51.46;100671.44;5069111;28;9491;-68
2022/04/09 01:47:03;;;;;;;;;0.00;0.00;;;;;15.85;51.46;100667.06;5069630;28;8764;-68
2022/04/09 01:49:29;;;;;;;;;0.67;0.00;;;;;15.84;51.55;100667.94;5070329;28;9487;-68
2022/04/09 01:51:54;;;;;;;;;0.00;0.00;;;;;15.82;51.67;100667.06;5069283;28;9276;-68
2022/04/09 01:54:19;;;;;;;;;0.00;0.00;;;;;15.80;51.47;100669.69;5070406;28;8818;-69
2022/04/09 01:56:44;;;;;;;;;2.00;0.00;;;;;15.79;51.33;100673.19;5070487;28;8809;-69
2022/04/09 01:59:10;;;;;;;;;0.00;0.00;;;;;15.88;51.36;100669.69;5073203;28;8925;-69
2022/04/09 02:01:35;;;;;;;;;2.00;0.67;;;;;15.81;51.50;100676.72;5073804;28;8764;-69
2022/04/09 02:04:00;;;;;;;;;0.00;0.00;;;;;15.79;51.32;100670.56;5073726;28;8770;-69
2022/04/09 02:06:26;;;;;;;;;0.00;0.00;;;;;15.82;51.32;100683.72;5072992;28;9595;-69
2022/04/09 02:08:51;;;;;;;;;0.00;0.00;;;;;15.83;51.07;100687.22;5073597;28;8789;-68
2022/04/09 02:11:19;;;;;;;;;0.00;0.00;;;;;15.82;51.26;100688.13;5073843;28;9510;-68
2022/04/09 02:13:44;;;;;;;;;3.00;0.00;;;;;15.82;51.03;100693.41;5072581;28;8799;-68
2022/04/09 02:16:10;;;;;;;;;0.00;0.00;;;;;15.85;51.14;100694.25;5073556;28;9385;-68
2022/04/09 02:18:35;;;;;;;;;0.00;0.00;;;;;15.81;51.10;100703.03;5072755;28;8823;-69
2022/04/09 02:21:00;;;;;;;;;0.75;0.00;;;;;15.80;51.09;100710.94;5073481;28;8882;-69
2022/04/09 02:23:26;;;;;;;;;0.67;0.00;;;;;15.80;51.23;100705.66;5073648;28;8776;-69
2022/04/09 02:25:51;;;;;;;;;1.00;1.00;;;;;15.84;51.16;100704.78;5072369;28;8780;-69
2022/04/09 02:28:16;;;;;;;;;0.00;0.00;;;;;15.83;50.93;100708.28;5073256;28;8771;-68
2022/04/09 02:30:42;;;;;;;;;0.00;0.00;;;;;15.80;50.79;100709.19;5073500;28;8795;-69
2022/04/09 02:33:07;;;;;;;;;0.00;0.00;;;;;15.80;50.87;100716.19;5072292;28;8767;-69
2022/04/09 02:35:32;;;;;;;;;0.33;0.33;;;;;15.81;50.79;100718.84;5073026;28;8783;-68
2022/04/09 02:38:02;;;;;;;;;0.00;0.00;;;;;15.80;50.92;100714.44;5073064;28;8853;-69
2022/04/09 02:40:28;;;;;;;;;0.67;0.67;;;;;15.80;50.70;100724.09;5072429;28;9523;-69
2022/04/09 02:42:53;;;;;;;;;1.00;0.00;;;;;15.81;50.82;100724.09;5073061;28;9182;-68
2022/04/09 02:45:20;;;;;;;;;0.00;0.00;;;;;15.81;50.74;100733.75;5073735;28;9094;-69
2022/04/09 02:47:45;;;;;;;;;1.00;0.00;;;;;15.80;50.63;100737.25;5072641;28;8841;-68
2022/04/09 02:50:12;;;;;;;;;1.00;0.00;;;;;15.79;50.70;100735.50;5073305;28;9106;-69
2022/04/09 02:52:39;;;;;;;;;0.00;0.00;;;;;15.80;50.67;100739.88;5073240;28;8775;-69
2022/04/09 02:55:06;;;;;;;;;0.00;0.00;;;;;15.80;50.77;100742.53;5072026;28;9176;-69
2022/04/09 02:57:32;;;;;;;;;0.00;0.00;;;;;15.79;50.85;100741.66;5072740;28;9143;-69
2022/04/09 02:59:57;;;;;;;;;0.00;0.00;;;;;15.79;50.61;100744.28;5072478;28;9344;-69
2022/04/09 03:02:23;;;;;;;;;0.00;0.00;;;;;15.78;50.69;100744.28;5072200;28;9264;-69
2022/04/09 03:04:48;;;;;;;;;1.33;0.00;;;;;15.76;50.73;100757.44;5072593;28;8775;-70
2022/04/09 03:07:14;;;;;;;;;0.00;0.00;;;;;15.77;50.58;100748.69;5072887;28;9240;-69
2022/04/09 03:09:39;;;;;;;;;0.00;0.00;;;;;15.74;50.43;100748.69;5071724;28;9539;-69
2022/04/09 03:12:04;;;;;;;;;0.00;0.00;;;;;15.75;50.45;100752.16;5072138;28;8772;-69
2022/04/09 03:14:30;;;;;;;;;2.00;0.00;;;;;15.69;50.41;100757.44;5072699;28;8779;-69
2022/04/09 03:16:56;;;;;;;;;0.00;0.00;;;;;15.75;50.24;100763.59;5071705;28;8772;-69
2022/04/09 03:19:21;;;;;;;;;1.00;0.00;;;;;15.74;50.57;100764.47;5072397;28;9543;-69
2022/04/09 03:21:46;;;;;;;;;1.00;0.00;;;;;15.76;50.17;100767.97;5071595;28;8759;-69
2022/04/09 03:24:11;;;;;;;;;1.00;1.00;;;;;15.76;50.20;100788.16;5072215;28;8775;-70
2022/04/09 03:26:37;;;;;;;;;1.00;0.00;;;;;15.79;50.36;100782.88;5072715;28;8776;-68
2022/04/09 03:29:03;;;;;;;;;0.67;0.00;;;;;15.76;50.07;100788.16;5071861;28;9321;-69
2022/04/09 03:31:32;;;;;;;;;1.00;1.00;;;;;15.73;50.11;100781.16;5072955;28;8822;-69
2022/04/09 03:33:57;;;;;;;;;0.00;0.00;;;;;15.73;50.14;100778.50;5072013;28;9269;-69
2022/04/09 03:36:22;;;;;;;;;1.00;0.00;;;;;15.73;49.76;100781.16;5071978;28;8980;-69
2022/04/09 03:38:48;;;;;;;;;0.00;0.00;;;;;15.72;49.98;100792.53;5071919;28;8811;-70
2022/04/09 03:41:13;;;;;;;;;0.00;0.00;;;;;15.71;49.81;100793.41;5072107;28;8748;-70
2022/04/09 03:43:39;;;;;;;;;1.33;0.00;;;;;15.71;49.74;100792.56;5071393;28;8803;-69
2022/04/09 03:46:04;;;;;;;;;1.00;0.67;;;;;15.72;49.79;100794.28;5071781;28;8771;-68
2022/04/09 03:48:29;;;;;;;;;0.00;0.00;;;;;15.73;49.82;100794.31;5072055;28;8830;-68
2022/04/09 03:50:57;;;;;;;;;2.00;0.00;;;;;15.72;49.90;100805.69;5071022;28;9564;-68
2022/04/09 03:53:23;;;;;;;;;0.00;0.00;;;;;15.71;49.88;100817.09;5071618;28;8900;-68
2022/04/09 03:55:49;;;;;;;;;0.00;0.00;;;;;15.68;49.91;100809.22;5071376;28;9158;-70
2022/04/09 03:58:15;;;;;;;;;0.00;0.00;;;;;15.69;49.91;100816.25;5071177;28;8834;-69
2022/04/09 04:00:41;;;;;;;;;0.00;0.00;;;;;15.68;49.64;100819.75;5071679;28;9293;-69
2022/04/09 04:03:07;;;;;;;;;0.00;0.00;;;;;15.67;49.62;100823.25;5071547;28;9004;-69
2022/04/09 04:05:33;;;;;;;;;0.33;0.00;;;;;15.68;49.55;100818.84;5071018;28;8767;-69
2022/04/09 04:07:58;;;;;;;;;0.00;0.00;;;;;15.72;49.60;100815.34;5071171;28;9010;-69
2022/04/09 04:10:23;;;;;;;;;0.33;0.00;;;;;15.71;49.74;100819.72;5071521;28;8879;-69
2022/04/09 04:12:49;;;;;;;;;0.00;0.00;;;;;15.66;49.62;100821.50;5070369;28;8794;-68
2022/04/09 04:15:15;;;;;;;;;0.00;0.00;;;;;15.71;49.65;100830.25;5071348;28;9575;-68
2022/04/09 04:17:44;;;;;;;;;0.00;0.00;;;;;15.69;49.45;100833.78;5071800;28;8843;-68
2022/04/09 04:20:11;;;;;;;;;0.00;0.00;;;;;15.72;49.46;100841.66;5070350;28;11361;-68
2022/04/09 04:22:37;;;;;;;;;1.00;0.00;;;;;15.73;49.51;100844.31;5071983;28;8996;-69
2022/04/09 04:25:03;;;;;;;;;0.00;0.00;;;;;15.68;49.43;100840.78;5071066;28;9182;-69
2022/04/09 04:27:29;;;;;;;;;0.00;0.00;;;;;15.71;49.39;100851.31;5071656;28;8857;-69
2022/04/09 04:30:01;;;;;;;;;0.00;0.00;;;;;15.72;49.23;100858.34;5070714;28;9071;-68
2022/04/09 04:32:27;;;;;;;;;1.00;0.00;;;;;15.69;49.31;100855.72;5070592;28;8886;-68
2022/04/09 04:34:52;;;;;;;;;1.00;0.00;;;;;15.69;49.41;100854.84;5070899;28;8998;-69
2022/04/09 04:37:17;;;;;;;;;0.00;0.00;;;;;15.64;49.53;100852.19;5071333;28;9095;-69
2022/04/09 04:39:43;;;;;;;;;0.00;0.00;;;;;15.67;49.51;100857.44;5070311;28;8776;-69
2022/04/09 04:42:08;;;;;;;;;0.00;0.00;;;;;15.72;49.32;100866.25;5071222;28;8868;-70
2022/04/09 04:44:34;;;;;;;;;0.00;0.00;;;;;15.69;49.38;100863.63;5071036;28;8775;-69
2022/04/09 04:46:59;;;;;;;;;0.00;0.00;;;;;15.68;49.30;100863.59;5069966;28;9629;-69
2022/04/09 04:49:24;;;;;;;;;0.00;0.00;;;;;15.73;49.59;100872.38;5071008;28;8783;-69
2022/04/09 04:51:50;;;;;;;;;0.00;0.00;;;;;15.70;49.28;100869.75;5070615;28;8796;-68
2022/04/09 04:54:15;;;;;;;;;0.00;0.00;;;;;15.66;49.35;100879.41;5069923;28;8768;-69
2022/04/09 04:56:41;;;;;;;;;0.67;0.00;;;;;15.66;49.38;100894.31;5071220;28;8752;-69
2022/04/09 04:59:07;;;;;;;;;1.00;0.00;;;;;15.68;49.48;100900.44;5070569;28;8811;-70
2022/04/09 05:01:34;;;;;;;;;1.00;1.00;;;;;15.73;49.23;100904.84;5070268;28;9069;-69
2022/04/09 05:04:00;;;;;;;;;0.00;0.00;;;;;15.69;49.21;100910.09;5070282;28;8788;-69
2022/04/09 05:06:25;;;;;;;;;0.00;0.00;;;;;15.73;49.11;100906.59;5070247;28;9300;-69
2022/04/09 05:08:50;;;;;;;;;0.67;0.00;;;;;15.72;49.27;100912.75;5069177;28;8789;-69
2022/04/09 05:11:16;;;;;;;;;0.00;0.00;;;;;15.72;49.23;100908.34;5070748;28;8770;-69
2022/04/09 05:13:41;;;;;;;;;0.00;0.00;;;;;15.70;48.99;100918.03;5070531;28;9651;-69
2022/04/09 05:16:06;;;;;;;;;1.00;0.00;;;;;15.70;49.12;100917.13;5069545;28;8822;-69
2022/04/09 05:18:35;;;;;;;;;1.00;0.00;;;;;15.71;48.84;100922.38;5070519;28;8900;-69
2022/04/09 05:21:01;;;;;;;;;0.00;0.00;;;;;15.69;49.06;100918.88;5070398;28;9578;-69
2022/04/09 05:23:26;;;;;;;;;0.00;0.00;;;;;15.70;49.00;100933.81;5069588;28;9310;-69
2022/04/09 05:25:51;;;;;;;;;0.00;0.00;;;;;15.71;49.04;100932.91;5070080;28;8765;-69
2022/04/09 05:28:17;;;;;;;;;0.00;0.00;;;;;15.67;48.98;100935.56;5070520;28;8807;-69
2022/04/09 05:30:46;;;;;;;;;0.67;0.00;;;;;15.70;49.25;100943.47;5069314;28;8810;-69
2022/04/09 05:33:11;;;;;;;;;0.67;0.00;;;;;15.71;48.82;100945.22;5070090;28;8802;-70
2022/04/09 05:35:36;;;;;;;;;0.00;0.00;;;;;15.72;48.81;100944.31;5069722;28;9883;-70
2022/04/09 05:38:03;;;;;;;;;0.00;0.00;;;;;15.72;48.69;100944.31;5069730;28;8807;-69
2022/04/09 05:40:29;;;;;;;;;0.33;0.33;;;;;15.71;48.54;100951.34;5070262;28;8829;-68
2022/04/09 05:43:00;;;;;;;;;0.00;0.00;;;;;15.72;48.62;100958.38;5069186;28;9212;-69
2022/04/09 05:45:26;;;;;;;;;0.00;0.00;;;;;15.75;48.68;100949.59;5070154;28;9107;-68
2022/04/09 05:47:51;;;;;;;;;0.00;0.00;;;;;15.77;48.55;100954.00;5069768;28;9337;-69
2022/04/09 05:50:17;;;;;;;;;0.33;0.00;;;;;15.80;48.32;100968.91;5069266;28;8772;-69
2022/04/09 05:52:43;;;;;;;;;0.00;0.00;;;;;15.79;48.11;100961.88;5070153;28;8781;-68
2022/04/09 05:55:09;;;;;;;;;0.00;0.00;;;;;15.82;48.28;100967.19;5070456;28;9166;-69
2022/04/09 05:57:34;;;;;;;;;0.00;0.00;;;;;15.83;48.39;100979.44;5069202;28;8823;-70
2022/04/09 06:00:01;;;;;;;;;0.00;0.00;;;;;15.84;48.27;100991.75;5069948;28;8791;-70
2022/04/09 06:02:26;;;;;;;;;0.67;0.00;;;;;15.86;48.27;100993.50;5070144;28;8796;-68
2022/04/09 06:04:52;;;;;;;;;0.00;0.00;;;;;15.87;48.23;100989.13;5068559;28;9241;-68
2022/04/09 06:07:17;;;;;;;;;0.00;0.00;;;;;15.87;48.13;100991.75;5070095;28;8845;-68
2022/04/09 06:09:43;;;;;;;;;0.00;0.00;;;;;15.81;48.27;100989.13;5069941;28;8787;-68
2022/04/09 06:12:10;;;;;;;;;1.00;0.00;;;;;15.89;48.34;101001.44;5069353;28;8748;-69
2022/04/09 06:14:35;;;;;;;;;0.00;0.00;;;;;15.88;48.30;100993.50;5069936;28;9078;-68
2022/04/09 06:17:01;;;;;;;;;0.33;0.00;;;;;15.91;48.25;101004.94;5069757;28;9168;-69
2022/04/09 06:19:27;;;;;;;;;0.00;0.00;;;;;15.91;47.98;101007.56;5068668;28;8779;-69
2022/04/09 06:21:52;;;;;;;;;1.00;0.00;;;;;15.87;48.35;101008.44;5069670;28;8784;-68
2022/04/09 06:24:18;;;;;;;;;0.00;0.00;;;;;15.91;48.35;101014.56;5070047;28;8825;-68
2022/04/09 06:26:43;;;;;;;;;0.00;0.00;;;;;15.90;48.25;101015.44;5069179;28;9632;-69
2022/04/09 06:29:08;;;;;;;;;0.00;0.00;;;;;15.91;48.06;101018.09;5069912;28;8969;-69
2022/04/09 06:31:34;;;;;;;;;0.33;0.33;;;;;15.90;48.29;101025.97;5069839;28;8767;-69
2022/04/09 06:33:59;;;;;;;;;0.00;0.00;;;;;15.91;48.37;101025.09;5068762;28;8787;-68
2022/04/09 06:36:27;;;;;;;;;0.00;0.00;;;;;15.90;48.08;101026.84;5069826;28;8764;-69
2022/04/09 06:38:53;;;;;;;;;0.00;0.00;;;;;15.89;48.22;101040.94;5068613;28;8845;-69
2022/04/09 06:41:18;;;;;;;;;0.00;0.00;;;;;15.92;48.24;101043.56;5069790;28;9160;-69
2022/04/09 06:43:47;;;;;;;;;0.00;0.00;;;;;15.92;48.24;101054.09;5071560;28;8768;-69
2022/04/09 06:46:14;;;;;;;;;0.00;0.00;;;;;15.95;48.30;101062.00;5072784;28;8778;-69
2022/04/09 06:48:39;;;;;;;;;0.33;0.00;;;;;15.93;48.25;101052.34;5073488;28;9161;-69
2022/04/09 06:51:05;;;;;;;;;0.00;0.00;;;;;15.95;48.43;101055.84;5073151;28;9252;-69
2022/04/09 06:53:30;;;;;;;;;0.33;0.33;;;;;15.93;48.12;101066.34;5072369;28;8768;-69
2022/04/09 06:55:55;;;;;;;;;0.00;0.00;;;;;15.93;48.54;101070.78;5073209;28;8771;-67
2022/04/09 06:58:20;;;;;;;;;0.00;0.00;;;;;15.91;48.16;101062.84;5072810;28;8938;-68
2022/04/09 07:00:46;;;;;;;;;0.00;0.00;;;;;15.94;48.32;101076.03;5072288;28;8760;-68
2022/04/09 07:03:12;;;;;;;;;0.00;0.00;;;;;15.98;48.08;101076.03;5073129;28;8795;-70
2022/04/09 07:05:38;;;;;;;;;0.00;0.00;;;;;15.94;48.21;101076.03;5073114;28;8787;-69
2022/04/09 07:08:03;;;;;;;;;0.00;0.00;;;;;15.92;48.32;101079.53;5072095;28;9155;-69
2022/04/09 07:10:32;;;;;;;;;0.00;0.00;;;;;15.95;48.00;101085.69;5073019;28;8778;-70
2022/04/09 07:12:57;;;;;;;;;0.00;0.00;;;;;15.91;48.27;101083.03;5072158;28;9537;-70
2022/04/09 07:15:22;;;;;;;;;0.00;0.00;;;;;15.93;48.24;101099.75;5071699;28;9301;-69
2022/04/09 07:17:48;;;;;;;;;0.00;0.00;;;;;15.94;48.44;101093.56;5072254;28;8819;-70
2022/04/09 07:20:13;;;;;;;;;0.00;0.00;;;;;15.96;48.58;101091.84;5070663;28;8970;-69
2022/04/09 07:22:40;;;;;;;;;0.00;0.00;;;;;15.98;48.49;101095.34;5070966;28;8823;-70
2022/04/09 07:25:06;;;;;;;;;0.00;0.00;;;;;15.97;48.77;101098.88;5070964;28;8791;-70
2022/04/09 07:27:41;;;;;;;;;0.67;0.33;;;;;15.99;48.75;101093.59;5071725;28;9259;-70
2022/04/09 07:30:18;;;;;;;;;1.00;0.00;;;;;16.01;48.71;101099.78;5072347;28;9191;-69
2022/04/09 07:32:44;;;;;;;;;0.00;0.00;;;;;15.96;48.58;101102.38;5074613;28;9332;-69
2022/04/09 07:35:11;;;;;;;;;0.00;0.00;;;;;15.98;48.73;101099.72;5069585;28;9220;-69
2022/04/09 07:38:03;;;;;;;;;0.00;0.00;;;;;16.03;48.55;101112.06;5071292;28;9353;-69
2022/04/09 07:40:28;;;;;;;;;0.00;0.00;;;;;16.04;48.40;101115.56;5069283;28;9275;-69
2022/04/09 07:42:54;;;;;;;;;0.00;0.00;;;;;16.08;48.49;101125.25;5070491;28;9204;-69
2022/04/09 07:45:20;;;;;;;;;0.00;0.00;;;;;16.11;48.50;101117.34;5069993;28;8865;-69
2022/04/09 07:47:46;;;;;;;;;0.00;0.00;;;;;16.07;48.32;101111.19;5071198;28;9936;-69
2022/04/09 07:50:12;;;;;;;;;0.00;0.00;;;;;16.11;48.54;101122.63;5070834;28;9269;-69
2022/04/09 07:52:45;;;;;;;;;0.00;0.00;;;;;16.13;48.52;101124.38;5071063;28;8863;-70
2022/04/09 07:55:12;;;;;;;;;0.00;0.00;;;;;16.14;48.59;101136.69;5069014;28;9271;-71
2022/04/09 07:57:40;;;;;;;;;0.00;0.00;;;;;16.09;49.75;101141.03;5071162;28;9264;-74
2022/04/09 08:00:07;;;;;;;;;1.00;0.00;;;;;16.16;50.74;101163.03;5071781;28;9225;-71
2022/04/09 08:02:35;;;;;;;;;0.00;0.00;;;;;16.22;50.18;101156.03;5072169;28;9931;-70
2022/04/09 08:05:01;;;;;;;;;0.67;0.00;;;;;16.32;52.76;101152.53;5070667;28;9251;-69
2022/04/09 08:07:27;;;;;;;;;0.67;0.00;;;;;16.37;52.86;101163.97;5071458;28;9844;-70
2022/04/09 08:09:52;;;;;;;;;0.00;0.00;;;;;16.44;55.16;101164.88;5071396;28;9078;-71
2022/04/09 08:12:17;;;;;;;;;1.33;1.00;;;;;16.47;57.33;101174.53;5070602;28;8804;-69
2022/04/09 08:14:42;;;;;;;;;1.00;0.00;;;;;16.53;56.44;101177.22;5071136;28;8802;-71
2022/04/09 08:17:08;;;;;;;;;1.67;1.67;;;;;16.61;59.88;101181.63;5070909;28;8819;-71
2022/04/09 08:19:34;;;;;;;;;0.00;0.00;;;;;16.70;60.17;101186.06;5071249;28;8584;-70
2022/04/09 08:22:01;;;;;;;;;0.00;0.00;;;;;16.73;59.53;101186.06;5071255;28;12219;-70
2022/04/09 08:24:26;;;;;;;;;0.00;0.00;;;;;16.77;60.24;101191.34;5070548;28;9198;-71
2022/04/09 08:26:51;;;;;;;;;2.33;1.67;;;;;16.71;62.82;101196.63;5070767;28;9010;-72
2022/04/09 08:29:19;;;;;;;;;2.33;1.00;;;;;16.67;62.65;101191.31;5071378;28;8771;-69
2022/04/09 08:31:47;;;;;;;;;0.00;0.00;;;;;16.89;64.58;101191.38;5070413;28;8768;-69
2022/04/09 08:34:13;;;;;;;;;2.00;1.00;;;;;16.87;63.87;101197.53;5071253;28;9208;-69
2022/04/09 08:36:39;;;;;;;;;1.00;1.00;;;;;16.95;64.50;101197.50;5071153;28;9268;-66
2022/04/09 08:39:04;;;;;;;;;2.00;0.00;;;;;16.68;65.60;101209.78;5069824;28;9265;-69
2022/04/09 08:41:30;;;;;;;;;1.67;1.67;;;;;16.45;65.32;101214.09;5071290;28;8822;-68
2022/04/09 08:43:55;;;;;;;;;3.00;1.33;;;;;16.35;64.51;101209.63;5070467;28;9479;-69
2022/04/09 08:46:23;;;;;;;;;2.33;1.00;;;;;16.54;64.39;101202.66;5070408;28;9156;-68
2022/04/09 08:48:50;;;;;;;;;1.00;0.00;;;;;16.62;64.13;101207.13;5070662;28;8832;-67
2022/04/09 08:51:15;;;;;;;;;0.00;0.00;;;;;16.68;62.69;101212.44;5071264;28;9286;-68
2022/04/09 08:53:43;;;;;;;;;0.00;0.00;;;;;16.67;61.76;101209.78;5070495;28;9076;-68
2022/04/09 08:56:11;;;;;;;;;0.33;0.00;;;;;16.33;60.06;101235.09;5070972;28;8837;-67
2022/04/09 08:58:36;;;;;;;;;2.00;0.67;;;;;16.24;59.23;101248.22;5070695;28;9156;-68
2022/04/09 09:01:01;;;;;;;;;0.67;0.00;;;;;16.18;57.58;101235.91;5069824;28;9006;-69
2022/04/09 09:03:27;;;;;;;;;3.00;2.00;;;;;16.23;56.85;101238.59;5070688;28;9650;-68
2022/04/09 09:05:52;;;;;;;;;0.00;0.00;;;;;16.17;54.90;101259.59;5069945;28;8810;-68
2022/04/09 09:08:38;;;;;;;;;1.00;1.00;;;;;16.24;54.72;101251.75;5069784;28;9505;-67
2022/04/09 09:11:03;;;;;;;;;0.00;0.00;;;;;16.31;53.02;101255.28;5070498;28;9361;-68
2022/04/09 09:13:28;;;;;;;;;1.00;1.00;;;;;16.38;50.24;101254.47;5069943;28;9129;-69
2022/04/09 09:15:55;;;;;;;;;1.67;0.67;;;;;16.29;52.00;101268.47;5069985;28;9546;-67
2022/04/09 09:18:28;;;;;;;;;0.33;0.00;;;;;16.29;50.33;101268.47;5070809;28;8887;-67
2022/04/09 09:20:56;;;;;;;;;1.00;0.00;;;;;16.38;49.72;101272.91;5069444;28;9010;-67
2022/04/09 09:23:25;;;;;;;;;1.00;0.67;;;;;16.32;50.12;101272.88;5070945;28;9010;-69
2022/04/09 09:25:52;;;;;;;;;1.00;1.00;;;;;16.33;49.00;101274.63;5068640;28;9296;-68
2022/04/09 09:28:25;;;;;;;;;0.00;0.00;;;;;16.31;48.65;101271.97;5069045;28;9102;-68
2022/04/09 09:30:51;;;;;;;;;1.00;1.00;;;;;16.32;48.58;101265.84;5069484;28;9054;-68
2022/04/09 09:33:17;;;;;;;;;0.00;0.00;;;;;16.16;48.58;101265.78;5069302;28;9034;-68
2022/04/09 09:35:56;;;;;;;;;0.00;0.00;;;;;16.25;47.77;101273.72;5068455;28;8780;-68
2022/04/09 09:38:29;;;;;;;;;1.00;1.00;;;;;16.23;47.97;101278.94;5074198;28;9210;-67
2022/04/09 09:40:58;;;;;;;;;0.67;0.67;;;;;16.20;48.29;101283.31;5069361;28;9240;-68
2022/04/09 09:43:25;;;;;;;;;1.00;1.00;;;;;16.03;48.26;101275.34;5069250;28;9114;-68
2022/04/09 09:45:53;;;;;;;;;0.33;0.33;;;;;16.14;48.12;101285.94;5068034;28;9210;-68
2022/04/09 09:48:25;;;;;;;;;2.00;0.00;;;;;16.22;48.20;101278.97;5069994;28;9251;-67
2022/04/09 09:50:53;;;;;;;;;1.67;1.00;;;;;16.27;48.02;101274.63;5068174;28;9208;-68
2022/04/09 09:53:29;;;;;;;;;1.00;0.00;;;;;16.17;48.33;101278.94;5069729;28;9305;-68
2022/04/09 09:55:59;;;;;;;;;1.00;1.00;;;;;16.27;48.08;101278.09;5068295;28;9175;-67
2022/04/09 09:58:26;;;;;;;;;0.67;0.67;;;;;15.99;48.35;101288.47;5069107;28;9221;-69
2022/04/09 10:00:53;;;;;;;;;1.67;1.67;;;;;15.86;48.44;101309.44;5069623;28;9068;-69
2022/04/09 10:03:19;;;;;;;;;6.25;3.00;;;;;15.84;47.70;101328.75;5068690;28;9340;-69
2022/04/09 10:05:47;;;;;;;;;2.67;2.00;;;;;15.79;47.55;101323.44;5068156;28;9500;-69
2022/04/09 10:08:12;;;;;;;;;7.00;4.50;;;;;15.99;47.52;101318.34;5069443;28;8792;-67
2022/04/09 10:10:41;;;;;;;;;3.00;3.00;;;;;16.12;47.26;101314.03;5068367;28;9561;-67
2022/04/09 10:13:07;;;;;;;;;2.00;2.00;;;;;16.18;47.37;101308.78;5069897;28;8894;-68
2022/04/09 10:15:33;;;;;;;;;6.75;5.25;;;;;16.24;47.32;101309.72;5069835;28;9422;-68
2022/04/09 10:18:00;;;;;;;;;4.75;4.00;;;;;16.26;47.30;101307.09;5069801;28;9529;-68
2022/04/09 10:20:28;;;;;;;;;5.25;5.25;;;;;16.30;47.25;101311.50;5073243;28;9404;-68
2022/04/09 10:22:58;;;;;;;;;5.00;3.25;;;;;16.31;47.33;101310.63;5073289;28;9477;-68
2022/04/09 10:25:32;;;;;;;;;4.50;4.00;;;;;16.31;47.75;101308.88;5072939;28;10257;-69
2022/04/09 10:28:01;;;;;;;;;4.00;4.00;;;;;16.34;47.78;101308.91;5073003;28;9549;-69
2022/04/09 10:30:28;;;;;;;;;7.75;4.50;;;;;16.34;47.57;101324.72;5073482;28;9547;-69
2022/04/09 10:32:59;;;;;;;;;4.75;3.50;;;;;16.28;47.93;101344.84;5072091;28;9625;-69
2022/04/09 10:35:29;;;;;;;;;2.50;2.50;;;;;16.28;47.81;101339.59;5073077;28;9470;-68
2022/04/09 10:38:10;;;;;;;;;3.25;3.25;;;;;16.29;48.20;101352.78;5072193;28;9482;-68
2022/04/09 10:40:50;;;;;;;;;3.00;3.00;;;;;16.24;47.99;101364.16;5072944;28;9395;-68
2022/04/09 10:43:21;;;;;;;;;3.25;3.25;;;;;16.20;47.72;101373.78;5073043;28;9398;-68
2022/04/09 10:46:02;;;;;;;;;4.75;4.00;;;;;16.21;47.97;101379.94;5071882;28;9336;-68
2022/04/09 10:48:29;;;;;;;;;5.00;4.25;;;;;16.21;47.97;101382.56;5072738;28;9568;-68
2022/04/09 10:50:58;;;;;;;;;4.00;2.75;;;;;16.24;47.93;101372.06;5072719;28;9406;-68
2022/04/09 10:53:26;;;;;;;;;4.00;4.00;;;;;16.26;48.02;101380.88;5072382;28;9292;-68
2022/04/09 10:56:29;;;;;;;;;3.00;3.00;;;;;16.26;48.29;101376.47;5072483;28;9455;-68
2022/04/09 10:59:06;;;;;;;;;4.50;3.75;;;;;16.27;47.89;101377.38;5071901;28;9470;-67
2022/04/09 11:01:47;;;;;;;;;4.00;4.00;;;;;16.27;47.88;101369.47;5072976;28;9594;-68
2022/04/09 11:04:37;;;;;;;;;2.75;2.75;;;;;16.32;47.96;101370.34;5072372;28;9489;-68
2022/04/09 11:07:17;;;;;;;;;2.25;2.25;;;;;16.33;47.74;101367.75;5071269;28;9466;-68
2022/04/09 11:09:52;;;;;;;;;4.00;3.00;;;;;16.33;48.21;101361.59;5072770;28;9469;-68
2022/04/09 11:12:22;;;;;;;;;3.25;3.25;;;;;16.29;48.10;101358.06;5072265;28;9476;-69
2022/04/09 11:14:54;;;;;;;;;3.25;2.25;;;;;16.30;48.16;101365.09;5071532;28;9529;-69
2022/04/09 11:17:24;;;;;;;;;2.75;2.75;;;;;16.32;48.38;101363.34;5072297;28;10133;-69
2022/04/09 11:19:49;;;;;;;;;3.00;3.00;;;;;16.30;48.37;101365.09;5072197;28;9387;-69
2022/04/09 11:22:15;;;;;;;;;4.50;4.25;;;;;16.29;48.42;101367.72;5071801;28;9581;-69
2022/04/09 11:24:41;;;;;;;;;2.25;2.25;;;;;16.29;48.56;101371.22;5072175;28;8813;-69
2022/04/09 11:27:07;;;;;;;;;3.25;3.00;;;;;16.34;48.43;101368.63;5071462;28;8797;-69
2022/04/09 11:29:37;;;;;;;;;3.00;2.25;;;;;16.35;48.45;101365.09;5071051;28;9655;-69
2022/04/09 11:32:02;;;;;;;;;1.00;1.00;;;;;16.32;48.27;101371.25;5071852;28;9987;-69
2022/04/09 11:34:28;;;;;;;;;3.00;2.00;;;;;16.35;48.62;101373.88;5071352;28;9193;-68
2022/04/09 11:37:09;;;;;;;;;2.33;2.00;;;;;16.35;48.77;101380.91;5072162;28;8793;-68